sensor_id;sensor_type;location;lat;lon;timestamp;P1;durP1;ratioP1;P2;durP2;ratioP2
55316;SDS011;41178;48.956;8.130;2023-06-24T00:02:54;5.40;;;3.70;;
55316;SDS011;41178;48.956;8.130;2023-06-24T00:07:57;3.70;;;3.33;;
55316;SDS011;41178;48.956;8.130;2023-06-24T00:13:03;4.63;;;3.58;;
55316;SDS011;41178;48.956;8.130;2023-06-24T00:18:05;5.15;;;3.58;;
55316;SDS011;41178;48.956;8.130;2023-06-24T00:23:08;3.80;;;3.45;;
55316;SDS011;41178;48.956;8.130;2023-06-24T00:28:10;5.25;;;4.25;;
55316;SDS011;41178;48.956;8.130;2023-06-24T00:33:12;4.20;;;3.80;;
55316;SDS011;41178;48.956;8.130;2023-06-24T00:38:14;6.45;;;4.03;;
55316;SDS011;41178;48.956;8.130;2023-06-24T00:43:16;5.57;;;4.07;;
55316;SDS011;41178;48.956;8.130;2023-06-24T00:48:18;7.05;;;3.65;;
55316;SDS011;41178;48.956;8.130;2023-06-24T00:53:22;4.30;;;3.13;;
55316;SDS011;41178;48.956;8.130;2023-06-24T00:58:26;4.68;;;3.92;;
55316;SDS011;41178;48.956;8.130;2023-06-24T01:03:28;4.93;;;3.50;;
55316;SDS011;41178;48.956;8.130;2023-06-24T01:08:31;6.80;;;3.45;;
55316;SDS011;41178;48.956;8.130;2023-06-24T01:13:33;5.03;;;3.80;;
55316;SDS011;41178;48.956;8.130;2023-06-24T01:18:40;4.35;;;3.88;;
55316;SDS011;41178;48.956;8.130;2023-06-24T01:29:15;8.00;;;3.58;;
55316;SDS011;41178;48.956;8.130;2023-06-24T01:34:25;6.00;;;3.80;;
55316;SDS011;41178;48.956;8.130;2023-06-24T01:39:37;5.88;;;4.65;;
55316;SDS011;41178;48.956;8.130;2023-06-24T01:45:09;4.50;;;4.10;;
55316;SDS011;41178;48.956;8.130;2023-06-24T01:50:16;7.63;;;3.90;;
55316;SDS011;41178;48.956;8.130;2023-06-24T01:55:21;5.33;;;3.80;;
55316;SDS011;41178;48.956;8.130;2023-06-24T02:00:26;5.00;;;4.03;;
55316;SDS011;41178;48.956;8.130;2023-06-24T02:05:27;5.03;;;4.37;;
55316;SDS011;41178;48.956;8.130;2023-06-24T02:10:30;4.70;;;4.10;;
55316;SDS011;41178;48.956;8.130;2023-06-24T02:15:32;4.77;;;4.27;;
55316;SDS011;41178;48.956;8.130;2023-06-24T02:20:37;4.80;;;4.23;;
55316;SDS011;41178;48.956;8.130;2023-06-24T02:25:41;7.63;;;4.43;;
55316;SDS011;41178;48.956;8.130;2023-06-24T02:30:45;6.23;;;4.00;;
55316;SDS011;41178;48.956;8.130;2023-06-24T02:35:47;5.20;;;3.93;;
55316;SDS011;41178;48.956;8.130;2023-06-24T02:40:49;6.07;;;4.10;;
55316;SDS011;41178;48.956;8.130;2023-06-24T02:45:52;7.00;;;4.40;;
55316;SDS011;41178;48.956;8.130;2023-06-24T02:50:55;4.83;;;4.30;;
55316;SDS011;41178;48.956;8.130;2023-06-24T02:55:57;6.70;;;4.50;;
55316;SDS011;41178;48.956;8.130;2023-06-24T03:01:00;6.07;;;4.73;;
55316;SDS011;41178;48.956;8.130;2023-06-24T03:06:04;6.70;;;3.93;;
55316;SDS011;41178;48.956;8.130;2023-06-24T03:11:06;6.15;;;4.18;;
55316;SDS011;41178;48.956;8.130;2023-06-24T03:16:07;7.73;;;3.97;;
55316;SDS011;41178;48.956;8.130;2023-06-24T03:21:13;6.80;;;4.60;;
55316;SDS011;41178;48.956;8.130;2023-06-24T03:26:15;6.30;;;4.40;;
55316;SDS011;41178;48.956;8.130;2023-06-24T03:31:17;5.37;;;4.47;;
55316;SDS011;41178;48.956;8.130;2023-06-24T03:36:19;5.50;;;4.60;;
55316;SDS011;41178;48.956;8.130;2023-06-24T03:41:21;7.00;;;5.00;;
55316;SDS011;41178;48.956;8.130;2023-06-24T03:46:23;5.80;;;5.00;;
55316;SDS011;41178;48.956;8.130;2023-06-24T03:51:25;5.10;;;4.33;;
55316;SDS011;41178;48.956;8.130;2023-06-24T03:56:26;6.37;;;5.10;;
55316;SDS011;41178;48.956;8.130;2023-06-24T04:01:28;5.50;;;4.80;;
55316;SDS011;41178;48.956;8.130;2023-06-24T04:06:33;5.67;;;4.90;;
55316;SDS011;41178;48.956;8.130;2023-06-24T04:11:35;6.07;;;4.77;;
55316;SDS011;41178;48.956;8.130;2023-06-24T04:16:37;5.60;;;4.90;;
55316;SDS011;41178;48.956;8.130;2023-06-24T04:21:39;7.57;;;5.67;;
55316;SDS011;41178;48.956;8.130;2023-06-24T04:26:40;5.73;;;5.23;;
55316;SDS011;41178;48.956;8.130;2023-06-24T04:31:42;6.10;;;5.40;;
55316;SDS011;41178;48.956;8.130;2023-06-24T04:36:44;7.97;;;6.03;;
55316;SDS011;41178;48.956;8.130;2023-06-24T04:41:46;7.50;;;5.80;;
55316;SDS011;41178;48.956;8.130;2023-06-24T04:46:48;6.83;;;5.90;;
55316;SDS011;41178;48.956;8.130;2023-06-24T04:51:50;7.03;;;5.63;;
55316;SDS011;41178;48.956;8.130;2023-06-24T04:56:51;6.83;;;5.60;;
55316;SDS011;41178;48.956;8.130;2023-06-24T05:01:56;7.50;;;5.43;;
55316;SDS011;41178;48.956;8.130;2023-06-24T05:06:58;7.70;;;6.13;;
55316;SDS011;41178;48.956;8.130;2023-06-24T05:12:00;8.27;;;5.73;;
55316;SDS011;41178;48.956;8.130;2023-06-24T05:17:05;7.67;;;6.43;;
55316;SDS011;41178;48.956;8.130;2023-06-24T05:22:07;8.03;;;6.23;;
55316;SDS011;41178;48.956;8.130;2023-06-24T05:27:10;6.77;;;6.07;;
55316;SDS011;41178;48.956;8.130;2023-06-24T05:32:12;8.80;;;6.30;;
55316;SDS011;41178;48.956;8.130;2023-06-24T05:37:13;7.57;;;6.13;;
55316;SDS011;41178;48.956;8.130;2023-06-24T05:42:16;8.53;;;6.80;;
55316;SDS011;41178;48.956;8.130;2023-06-24T05:47:18;7.10;;;6.37;;
55316;SDS011;41178;48.956;8.130;2023-06-24T05:52:20;7.50;;;6.63;;
55316;SDS011;41178;48.956;8.130;2023-06-24T05:57:21;7.43;;;6.73;;
55316;SDS011;41178;48.956;8.130;2023-06-24T06:02:23;8.53;;;7.43;;
55316;SDS011;41178;48.956;8.130;2023-06-24T06:07:25;7.50;;;6.77;;
55316;SDS011;41178;48.956;8.130;2023-06-24T06:12:27;7.97;;;7.13;;
55316;SDS011;41178;48.956;8.130;2023-06-24T06:17:28;6.50;;;5.65;;
55316;SDS011;41178;48.956;8.130;2023-06-24T06:22:30;6.65;;;5.70;;
55316;SDS011;41178;48.956;8.130;2023-06-24T06:27:33;5.70;;;4.90;;
55316;SDS011;41178;48.956;8.130;2023-06-24T06:32:35;6.00;;;5.28;;
55316;SDS011;41178;48.956;8.130;2023-06-24T06:37:37;6.72;;;5.93;;
55316;SDS011;41178;48.956;8.130;2023-06-24T06:42:38;8.40;;;6.00;;
55316;SDS011;41178;48.956;8.130;2023-06-24T06:47:40;7.95;;;5.38;;
55316;SDS011;41178;48.956;8.130;2023-06-24T06:52:42;7.43;;;6.47;;
55316;SDS011;41178;48.956;8.130;2023-06-24T06:57:44;6.53;;;5.57;;
55316;SDS011;41178;48.956;8.130;2023-06-24T07:02:46;8.02;;;5.90;;
55316;SDS011;41178;48.956;8.130;2023-06-24T07:07:48;5.88;;;5.28;;
55316;SDS011;41178;48.956;8.130;2023-06-24T07:12:52;6.70;;;5.50;;
55316;SDS011;41178;48.956;8.130;2023-06-24T07:17:59;6.40;;;5.53;;
55316;SDS011;41178;48.956;8.130;2023-06-24T07:23:01;7.18;;;5.53;;
55316;SDS011;41178;48.956;8.130;2023-06-24T07:28:04;6.40;;;5.25;;
55316;SDS011;41178;48.956;8.130;2023-06-24T07:33:06;5.53;;;4.68;;
55316;SDS011;41178;48.956;8.130;2023-06-24T07:38:09;5.80;;;4.30;;
55316;SDS011;41178;48.956;8.130;2023-06-24T07:43:11;6.47;;;4.88;;
55316;SDS011;41178;48.956;8.130;2023-06-24T07:48:12;5.82;;;4.88;;
55316;SDS011;41178;48.956;8.130;2023-06-24T07:53:14;6.25;;;4.70;;
55316;SDS011;41178;48.956;8.130;2023-06-24T07:58:16;6.95;;;4.95;;
55316;SDS011;41178;48.956;8.130;2023-06-24T08:03:18;5.63;;;4.40;;
55316;SDS011;41178;48.956;8.130;2023-06-24T08:08:20;5.63;;;4.57;;
55316;SDS011;41178;48.956;8.130;2023-06-24T08:13:22;4.90;;;4.30;;
55316;SDS011;41178;48.956;8.130;2023-06-24T08:18:23;4.97;;;4.07;;
55316;SDS011;41178;48.956;8.130;2023-06-24T08:23:25;5.45;;;3.97;;
55316;SDS011;41178;48.956;8.130;2023-06-24T08:28:27;4.20;;;3.80;;
55316;SDS011;41178;48.956;8.130;2023-06-24T08:33:29;7.65;;;3.95;;
55316;SDS011;41178;48.956;8.130;2023-06-24T08:38:30;4.07;;;3.67;;
55316;SDS011;41178;48.956;8.130;2023-06-24T08:43:32;6.57;;;4.68;;
55316;SDS011;41178;48.956;8.130;2023-06-24T08:48:34;5.40;;;3.78;;
55316;SDS011;41178;48.956;8.130;2023-06-24T08:53:42;3.95;;;3.25;;
55316;SDS011;41178;48.956;8.130;2023-06-24T08:58:47;4.95;;;3.38;;
55316;SDS011;41178;48.956;8.130;2023-06-24T09:03:49;4.82;;;3.00;;
55316;SDS011;41178;48.956;8.130;2023-06-24T09:08:52;3.50;;;2.63;;
55316;SDS011;41178;48.956;8.130;2023-06-24T09:13:55;3.17;;;2.85;;
55316;SDS011;41178;48.956;8.130;2023-06-24T09:19:00;3.13;;;2.85;;
55316;SDS011;41178;48.956;8.130;2023-06-24T09:24:02;3.65;;;3.30;;
55316;SDS011;41178;48.956;8.130;2023-06-24T09:29:06;3.30;;;3.00;;
55316;SDS011;41178;48.956;8.130;2023-06-24T09:34:12;3.15;;;2.72;;
55316;SDS011;41178;48.956;8.130;2023-06-24T09:39:15;3.00;;;2.72;;
55316;SDS011;41178;48.956;8.130;2023-06-24T09:44:30;4.97;;;3.15;;
55316;SDS011;41178;48.956;8.130;2023-06-24T09:49:32;3.63;;;3.20;;
55316;SDS011;41178;48.956;8.130;2023-06-24T09:54:34;6.38;;;3.20;;
55316;SDS011;41178;48.956;8.130;2023-06-24T09:59:38;3.25;;;2.95;;
55316;SDS011;41178;48.956;8.130;2023-06-24T10:04:41;3.58;;;3.08;;
55316;SDS011;41178;48.956;8.130;2023-06-24T10:09:44;4.38;;;3.22;;
55316;SDS011;41178;48.956;8.130;2023-06-24T10:14:46;3.88;;;3.05;;
55316;SDS011;41178;48.956;8.130;2023-06-24T10:19:48;4.25;;;3.08;;
55316;SDS011;41178;48.956;8.130;2023-06-24T10:24:53;6.07;;;2.83;;
55316;SDS011;41178;48.956;8.130;2023-06-24T10:29:56;3.72;;;2.80;;
55316;SDS011;41178;48.956;8.130;2023-06-24T10:35:05;4.45;;;3.13;;
55316;SDS011;41178;48.956;8.130;2023-06-24T10:40:07;5.45;;;3.10;;
55316;SDS011;41178;48.956;8.130;2023-06-24T10:45:13;3.50;;;3.00;;
55316;SDS011;41178;48.956;8.130;2023-06-24T10:50:18;6.13;;;2.95;;
55316;SDS011;41178;48.956;8.130;2023-06-24T10:55:24;3.55;;;2.90;;
55316;SDS011;41178;48.956;8.130;2023-06-24T11:06:22;4.22;;;3.13;;
55316;SDS011;41178;48.956;8.130;2023-06-24T11:11:23;4.93;;;2.80;;
55316;SDS011;41178;48.956;8.130;2023-06-24T11:16:25;3.30;;;3.00;;
55316;SDS011;41178;48.956;8.130;2023-06-24T11:21:30;4.32;;;3.22;;
55316;SDS011;41178;48.956;8.130;2023-06-24T11:26:33;3.75;;;2.97;;
55316;SDS011;41178;48.956;8.130;2023-06-24T11:31:34;4.20;;;3.00;;
55316;SDS011;41178;48.956;8.130;2023-06-24T11:36:37;3.70;;;3.00;;
55316;SDS011;41178;48.956;8.130;2023-06-24T11:41:39;6.53;;;2.90;;
55316;SDS011;41178;48.956;8.130;2023-06-24T11:46:41;4.03;;;3.42;;
55316;SDS011;41178;48.956;8.130;2023-06-24T11:51:49;3.00;;;2.80;;
55316;SDS011;41178;48.956;8.130;2023-06-24T11:56:52;3.50;;;2.85;;
55316;SDS011;41178;48.956;8.130;2023-06-24T12:01:56;4.35;;;2.90;;
55316;SDS011;41178;48.956;8.130;2023-06-24T12:06:59;3.38;;;3.08;;
55316;SDS011;41178;48.956;8.130;2023-06-24T12:12:01;3.15;;;2.80;;
55316;SDS011;41178;48.956;8.130;2023-06-24T12:17:03;4.55;;;2.90;;
55316;SDS011;41178;48.956;8.130;2023-06-24T12:22:05;3.63;;;2.90;;
55316;SDS011;41178;48.956;8.130;2023-06-24T12:27:06;3.45;;;2.72;;
55316;SDS011;41178;48.956;8.130;2023-06-24T12:32:10;5.03;;;2.88;;
55316;SDS011;41178;48.956;8.130;2023-06-24T12:37:12;4.28;;;3.03;;
55316;SDS011;41178;48.956;8.130;2023-06-24T12:42:13;2.60;;;2.40;;
55316;SDS011;41178;48.956;8.130;2023-06-24T12:47:15;4.28;;;3.00;;
55316;SDS011;41178;48.956;8.130;2023-06-24T12:52:17;3.00;;;2.72;;
55316;SDS011;41178;48.956;8.130;2023-06-24T12:57:19;2.92;;;2.70;;
55316;SDS011;41178;48.956;8.130;2023-06-24T13:02:20;4.10;;;2.63;;
55316;SDS011;41178;48.956;8.130;2023-06-24T13:07:23;7.15;;;3.05;;
55316;SDS011;41178;48.956;8.130;2023-06-24T13:12:24;3.22;;;2.92;;
55316;SDS011;41178;48.956;8.130;2023-06-24T13:17:26;3.13;;;2.83;;
55316;SDS011;41178;48.956;8.130;2023-06-24T13:22:28;2.95;;;2.63;;
55316;SDS011;41178;48.956;8.130;2023-06-24T13:27:30;4.13;;;3.20;;
55316;SDS011;41178;48.956;8.130;2023-06-24T13:32:32;3.30;;;2.83;;
55316;SDS011;41178;48.956;8.130;2023-06-24T13:37:33;3.72;;;2.55;;
55316;SDS011;41178;48.956;8.130;2023-06-24T13:42:35;3.75;;;2.92;;
55316;SDS011;41178;48.956;8.130;2023-06-24T13:47:37;3.00;;;2.72;;
55316;SDS011;41178;48.956;8.130;2023-06-24T13:52:39;3.42;;;2.80;;
55316;SDS011;41178;48.956;8.130;2023-06-24T13:57:41;3.00;;;2.67;;
55316;SDS011;41178;48.956;8.130;2023-06-24T14:02:42;3.20;;;2.90;;
55316;SDS011;41178;48.956;8.130;2023-06-24T14:07:44;3.22;;;2.92;;
55316;SDS011;41178;48.956;8.130;2023-06-24T14:12:46;3.63;;;2.95;;
55316;SDS011;41178;48.956;8.130;2023-06-24T14:17:48;3.88;;;2.60;;
55316;SDS011;41178;48.956;8.130;2023-06-24T14:22:50;3.15;;;2.58;;
55316;SDS011;41178;48.956;8.130;2023-06-24T14:27:52;3.42;;;3.00;;
55316;SDS011;41178;48.956;8.130;2023-06-24T14:32:54;3.00;;;2.70;;
55316;SDS011;41178;48.956;8.130;2023-06-24T14:37:56;3.50;;;3.08;;
55316;SDS011;41178;48.956;8.130;2023-06-24T14:42:58;5.13;;;2.95;;
55316;SDS011;41178;48.956;8.130;2023-06-24T14:48:00;3.05;;;2.75;;
55316;SDS011;41178;48.956;8.130;2023-06-24T14:53:03;3.60;;;3.05;;
55316;SDS011;41178;48.956;8.130;2023-06-24T14:58:05;3.40;;;3.10;;
55316;SDS011;41178;48.956;8.130;2023-06-24T15:03:07;3.38;;;2.63;;
55316;SDS011;41178;48.956;8.130;2023-06-24T15:08:09;4.82;;;2.65;;
55316;SDS011;41178;48.956;8.130;2023-06-24T15:13:11;2.85;;;2.55;;
55316;SDS011;41178;48.956;8.130;2023-06-24T15:18:12;3.25;;;2.70;;
55316;SDS011;41178;48.956;8.130;2023-06-24T15:23:16;4.60;;;3.20;;
55316;SDS011;41178;48.956;8.130;2023-06-24T15:28:18;3.30;;;3.00;;
55316;SDS011;41178;48.956;8.130;2023-06-24T15:33:20;4.75;;;3.05;;
55316;SDS011;41178;48.956;8.130;2023-06-24T15:38:21;2.85;;;2.53;;
55316;SDS011;41178;48.956;8.130;2023-06-24T15:43:23;4.15;;;3.00;;
55316;SDS011;41178;48.956;8.130;2023-06-24T15:48:25;3.78;;;2.67;;
55316;SDS011;41178;48.956;8.130;2023-06-24T15:53:27;2.80;;;2.58;;
55316;SDS011;41178;48.956;8.130;2023-06-24T15:58:31;3.28;;;2.97;;
55316;SDS011;41178;48.956;8.130;2023-06-24T16:03:33;3.25;;;2.95;;
55316;SDS011;41178;48.956;8.130;2023-06-24T16:08:35;3.58;;;2.83;;
55316;SDS011;41178;48.956;8.130;2023-06-24T16:13:37;2.78;;;2.53;;
55316;SDS011;41178;48.956;8.130;2023-06-24T16:18:39;3.85;;;2.83;;
55316;SDS011;41178;48.956;8.130;2023-06-24T16:23:41;3.10;;;2.55;;
55316;SDS011;41178;48.956;8.130;2023-06-24T16:28:42;4.32;;;3.08;;
55316;SDS011;41178;48.956;8.130;2023-06-24T16:33:44;4.68;;;2.70;;
55316;SDS011;41178;48.956;8.130;2023-06-24T16:38:46;3.08;;;2.78;;
55316;SDS011;41178;48.956;8.130;2023-06-24T16:43:48;2.75;;;2.40;;
55316;SDS011;41178;48.956;8.130;2023-06-24T16:48:50;4.15;;;2.90;;
55316;SDS011;41178;48.956;8.130;2023-06-24T16:53:51;3.40;;;2.78;;
55316;SDS011;41178;48.956;8.130;2023-06-24T16:58:53;3.42;;;3.13;;
55316;SDS011;41178;48.956;8.130;2023-06-24T17:03:55;2.88;;;2.58;;
55316;SDS011;41178;48.956;8.130;2023-06-24T17:08:57;3.42;;;3.00;;
55316;SDS011;41178;48.956;8.130;2023-06-24T17:13:59;3.20;;;2.75;;
55316;SDS011;41178;48.956;8.130;2023-06-24T17:19:01;5.82;;;2.70;;
55316;SDS011;41178;48.956;8.130;2023-06-24T17:24:03;4.10;;;2.63;;
55316;SDS011;41178;48.956;8.130;2023-06-24T17:29:06;3.20;;;2.90;;
55316;SDS011;41178;48.956;8.130;2023-06-24T17:34:09;2.65;;;2.45;;
55316;SDS011;41178;48.956;8.130;2023-06-24T17:39:11;4.13;;;2.88;;
55316;SDS011;41178;48.956;8.130;2023-06-24T17:44:12;4.22;;;3.03;;
55316;SDS011;41178;48.956;8.130;2023-06-24T17:49:14;5.35;;;3.28;;
55316;SDS011;41178;48.956;8.130;2023-06-24T17:54:16;4.55;;;3.33;;
55316;SDS011;41178;48.956;8.130;2023-06-24T17:59:18;3.30;;;2.67;;
55316;SDS011;41178;48.956;8.130;2023-06-24T18:04:20;3.97;;;3.20;;
55316;SDS011;41178;48.956;8.130;2023-06-24T18:09:21;4.55;;;2.90;;
55316;SDS011;41178;48.956;8.130;2023-06-24T18:14:23;3.00;;;2.70;;
55316;SDS011;41178;48.956;8.130;2023-06-24T18:19:25;3.03;;;2.67;;
55316;SDS011;41178;48.956;8.130;2023-06-24T18:24:27;4.93;;;2.78;;
55316;SDS011;41178;48.956;8.130;2023-06-24T18:29:29;3.17;;;2.88;;
55316;SDS011;41178;48.956;8.130;2023-06-24T18:34:30;4.07;;;3.15;;
55316;SDS011;41178;48.956;8.130;2023-06-24T18:39:32;3.50;;;2.70;;
55316;SDS011;41178;48.956;8.130;2023-06-24T18:44:34;3.50;;;2.75;;
55316;SDS011;41178;48.956;8.130;2023-06-24T18:49:36;4.13;;;2.90;;
55316;SDS011;41178;48.956;8.130;2023-06-24T18:54:38;5.00;;;2.85;;
55316;SDS011;41178;48.956;8.130;2023-06-24T18:59:39;7.07;;;3.15;;
55316;SDS011;41178;48.956;8.130;2023-06-24T19:04:43;3.40;;;3.10;;
55316;SDS011;41178;48.956;8.130;2023-06-24T19:09:45;3.88;;;2.92;;
55316;SDS011;41178;48.956;8.130;2023-06-24T19:14:47;5.35;;;3.25;;
55316;SDS011;41178;48.956;8.130;2023-06-24T19:19:49;4.63;;;3.28;;
55316;SDS011;41178;48.956;8.130;2023-06-24T19:24:51;4.35;;;3.08;;
55316;SDS011;41178;48.956;8.130;2023-06-24T19:29:52;3.38;;;2.97;;
55316;SDS011;41178;48.956;8.130;2023-06-24T19:34:54;3.63;;;3.10;;
55316;SDS011;41178;48.956;8.130;2023-06-24T19:39:56;3.72;;;3.20;;
55316;SDS011;41178;48.956;8.130;2023-06-24T19:44:59;3.42;;;2.90;;
55316;SDS011;41178;48.956;8.130;2023-06-24T19:50:01;3.70;;;2.95;;
55316;SDS011;41178;48.956;8.130;2023-06-24T19:55:03;4.18;;;3.25;;
55316;SDS011;41178;48.956;8.130;2023-06-24T20:00:05;4.28;;;3.60;;
55316;SDS011;41178;48.956;8.130;2023-06-24T20:05:08;3.88;;;3.38;;
55316;SDS011;41178;48.956;8.130;2023-06-24T20:10:10;3.92;;;3.40;;
55316;SDS011;41178;48.956;8.130;2023-06-24T20:15:12;6.25;;;3.33;;
55316;SDS011;41178;48.956;8.130;2023-06-24T20:20:14;3.45;;;3.15;;
55316;SDS011;41178;48.956;8.130;2023-06-24T20:25:16;4.55;;;3.30;;
55316;SDS011;41178;48.956;8.130;2023-06-24T20:30:18;4.60;;;3.55;;
55316;SDS011;41178;48.956;8.130;2023-06-24T20:35:20;5.15;;;3.25;;
55316;SDS011;41178;48.956;8.130;2023-06-24T20:40:22;5.40;;;3.33;;
55316;SDS011;41178;48.956;8.130;2023-06-24T20:45:24;6.25;;;3.42;;
55316;SDS011;41178;48.956;8.130;2023-06-24T20:50:25;4.00;;;3.38;;
55316;SDS011;41178;48.956;8.130;2023-06-24T20:55:27;4.47;;;3.15;;
55316;SDS011;41178;48.956;8.130;2023-06-24T21:00:29;4.07;;;3.20;;
55316;SDS011;41178;48.956;8.130;2023-06-24T21:05:31;3.28;;;2.97;;
55316;SDS011;41178;48.956;8.130;2023-06-24T21:10:33;4.25;;;3.35;;
55316;SDS011;41178;48.956;8.130;2023-06-24T21:15:35;3.97;;;3.15;;
55316;SDS011;41178;48.956;8.130;2023-06-24T21:20:38;4.15;;;3.13;;
55316;SDS011;41178;48.956;8.130;2023-06-24T21:25:40;4.53;;;3.22;;
55316;SDS011;41178;48.956;8.130;2023-06-24T21:30:42;3.70;;;3.30;;
55316;SDS011;41178;48.956;8.130;2023-06-24T21:35:44;4.22;;;3.50;;
55316;SDS011;41178;48.956;8.130;2023-06-24T21:41:01;4.15;;;3.10;;
55316;SDS011;41178;48.956;8.130;2023-06-24T21:46:03;4.07;;;3.40;;
55316;SDS011;41178;48.956;8.130;2023-06-24T21:51:05;6.70;;;3.28;;
55316;SDS011;41178;48.956;8.130;2023-06-24T21:56:07;4.50;;;3.08;;
55316;SDS011;41178;48.956;8.130;2023-06-24T22:01:09;4.50;;;3.67;;
55316;SDS011;41178;48.956;8.130;2023-06-24T22:06:11;5.25;;;3.80;;
55316;SDS011;41178;48.956;8.130;2023-06-24T22:11:13;3.72;;;3.38;;
55316;SDS011;41178;48.956;8.130;2023-06-24T22:16:16;4.88;;;4.10;;
55316;SDS011;41178;48.956;8.130;2023-06-24T22:21:18;4.65;;;3.80;;
55316;SDS011;41178;48.956;8.130;2023-06-24T22:26:20;6.43;;;3.80;;
55316;SDS011;41178;48.956;8.130;2023-06-24T22:31:22;4.45;;;3.63;;
55316;SDS011;41178;48.956;8.130;2023-06-24T22:36:24;4.35;;;3.47;;
55316;SDS011;41178;48.956;8.130;2023-06-24T22:41:26;4.65;;;3.55;;
55316;SDS011;41178;48.956;8.130;2023-06-24T22:46:28;6.22;;;3.53;;
55316;SDS011;41178;48.956;8.130;2023-06-24T22:51:30;4.93;;;3.63;;
55316;SDS011;41178;48.956;8.130;2023-06-24T22:56:32;8.57;;;4.65;;
55316;SDS011;41178;48.956;8.130;2023-06-24T23:01:34;5.88;;;4.18;;
55316;SDS011;41178;48.956;8.130;2023-06-24T23:06:36;5.65;;;4.13;;
55316;SDS011;41178;48.956;8.130;2023-06-24T23:11:38;4.72;;;4.07;;
55316;SDS011;41178;48.956;8.130;2023-06-24T23:16:40;5.63;;;4.10;;
55316;SDS011;41178;48.956;8.130;2023-06-24T23:21:42;4.85;;;4.35;;
55316;SDS011;41178;48.956;8.130;2023-06-24T23:26:44;6.65;;;4.57;;
55316;SDS011;41178;48.956;8.130;2023-06-24T23:31:52;5.25;;;4.43;;
55316;SDS011;41178;48.956;8.130;2023-06-24T23:36:54;6.25;;;4.20;;
55316;SDS011;41178;48.956;8.130;2023-06-24T23:41:57;5.00;;;3.95;;
55316;SDS011;41178;48.956;8.130;2023-06-24T23:46:59;5.70;;;4.40;;
55316;SDS011;41178;48.956;8.130;2023-06-24T23:52:01;5.25;;;4.47;;
55316;SDS011;41178;48.956;8.130;2023-06-24T23:57:03;6.15;;;4.72;;
